Flight Track Log - Related Links

Times and Time Zones

All times are in EDT time to prevent confusion due to time zone crossing. See the AAL979 flight status page for this flight to view local times or setup timezone preferences in your user account.

Time Position Orientation Groundspeed Altitude Reporting Facility
EDT Latitude Longitude Course Direction KTS MPH feet Rate Location/Type
Tue 12:31:16 PM 25.7983 -80.2722 104° East 168 193 900  Level Miami Center
Tue 12:32:29 PM 25.7664 -80.2019 117° Southeast 240 276 3,500 2,500 Climbing Miami Center
Tue 12:33:00 PM 25.6123 -80.1070 114° Southeast  Level Estimated
Tue 12:33:40 PM 25.7392 -80.1183 110° East 269 310 6,900  Level Miami Center
Tue 12:34:00 PM 25.5207 -80.0157 104° East  Level Estimated
Tue 12:34:40 PM 25.7242 -80.0325 101° East 275 316 10,300  Level Miami Center
Tue 12:35:00 PM 25.4290 -79.9246 105° East  Level Estimated
Tue 12:35:40 PM 25.7033 -79.9328 103° East 304 350 12,100  Level Miami Center
Tue 12:36:00 PM 25.3373 -79.8335 104° East  Level Estimated
Tue 12:36:40 PM 25.6764 -79.8214 105° East 341 392 14,700  Level Miami Center
Tue 12:37:40 PM 25.6536 -79.7081 103° East 363 418 17,200 2,400 Climbing Miami Center
Tue 12:38:40 PM 25.6289 -79.5831 102° East 386 444 19,500 2,300 Climbing Miami Center
Tue 12:39:40 PM 25.5975 -79.4556 105° East 411 473 21,800 2,300 Climbing Miami Center
Tue 12:40:40 PM 25.5664 -79.3236 105° East 424 488 24,100 2,100 Climbing Miami Center
Tue 12:41:40 PM 25.5036 -79.2072 121° Southeast 436 502 26,000 1,750 Climbing Miami Center
Tue 12:42:40 PM 25.4197 -79.0975 130° Southeast 448 516 27,600 1,700 Climbing Miami Center
Tue 12:43:40 PM 25.3272 -78.9856 132° Southeast 465 535 29,400 1,650 Climbing Miami Center
Tue 12:44:40 PM 25.2286 -78.8667 133° Southeast 477 549 30,900 1,600 Climbing Miami Center
Tue 12:45:40 PM 25.1403 -78.7503 130° Southeast 482 555 32,600 1,400 Climbing Miami Center
Tue 12:46:40 PM 25.0478 -78.6342 131° Southeast 494 568 33,700 1,100 Climbing Miami Center
Tue 12:47:40 PM 24.9531 -78.5114 130° Southeast 506 582 34,800 1,250 Climbing Miami Center
Tue 12:48:40 PM 24.8561 -78.3911 132° Southeast 512 589 36,200 1,300 Climbing Miami Center
Tue 12:49:40 PM 24.7592 -78.2708 132° Southeast 524 603 37,400 1,050 Climbing Miami Center
Tue 12:50:40 PM 24.6597 -78.1508 132° Southeast 524 603 38,300 800 Climbing Miami Center
Tue 12:51:40 PM 24.5647 -78.0286 131° Southeast 524 603 39,000 350 Climbing Miami Center
Tue 12:52:40 PM 24.4653 -77.9067 132° Southeast 524 603 39,000  Level Miami Center
Tue 12:53:40 PM 24.3700 -77.7875 131° Southeast 524 603 39,000  Level Miami Center
Tue 12:54:40 PM 24.2725 -77.6681 132° Southeast 519 597 39,000  Level Miami Center
Tue 12:55:40 PM 24.1789 -77.5492 131° Southeast 519 597 39,000  Level Miami Center
Tue 12:56:40 PM 24.0833 -77.4347 132° Southeast 519 597 39,000  Level Miami Center
Tue 12:57:40 PM 23.9917 -77.3161 130° Southeast 514 592 39,000  Level Miami Center
Tue 12:58:40 PM 23.8939 -77.2044 134° Southeast 514 592 39,000  Level Miami Center
Tue 12:59:40 PM 23.8167 -77.1019 129° Southeast 509 586 39,000  Level Miami Center
Tue 01:00:40 PM 23.7208 -76.9883 133° Southeast 509 586 39,000  Level Miami Center
Tue 01:01:40 PM 23.6247 -76.8725 132° Southeast 509 586 39,000  Level Miami Center
Tue 01:02:40 PM 23.5306 -76.7547 131° Southeast 514 592 39,000  Level Miami Center
Tue 01:03:40 PM 23.4322 -76.6369 132° Southeast 520 598 39,000  Level Miami Center
Tue 01:04:40 PM 23.3358 -76.5194 132° Southeast 520 598 39,000  Level Miami Center
Tue 01:05:40 PM 23.2267 -76.3908 133° Southeast 520 598 39,000  Level Miami Center
Tue 01:06:40 PM 23.1325 -76.2761 132° Southeast 520 598 39,000  Level Miami Center
Tue 01:07:40 PM 23.0358 -76.1592 132° Southeast 520 598 39,000  Level Miami Center
Tue 01:08:40 PM 22.9392 -76.0447 133° Southeast 520 598 39,000  Level Miami Center
Tue 01:09:40 PM 22.8422 -75.9281 132° Southeast 520 598 39,000  Level Miami Center
Tue 01:10:40 PM 22.7475 -75.8139 132° Southeast 515 593 39,000  Level Miami Center
Tue 01:11:40 PM 22.6506 -75.6997 133° Southeast 515 593 39,000  Level Miami Center
Tue 01:12:40 PM 22.5536 -75.5858 133° Southeast 515 593 39,000  Level Miami Center
Tue 01:13:40 PM 22.4586 -75.4744 133° Southeast 515 593 39,000  Level Miami Center
Tue 01:14:40 PM 22.3633 -75.3611 132° Southeast 515 593 39,000  Level Miami Center
Tue 01:15:40 PM 22.2683 -75.2475 132° Southeast 515 593 39,000  Level Miami Center
Tue 01:16:40 PM 22.1731 -75.1344 132° Southeast 515 593 39,000  Level Miami Center
Tue 01:17:40 PM 22.0714 -75.0258 135° Southeast 510 587 39,000  Level Miami Center
Tue 01:18:40 PM 21.9681 -74.9311 140° Southeast 505 581 39,000  Level Miami Center
Tue 01:19:40 PM 21.8603 -74.8297 139° Southeast 505 581 39,000  Level Miami Center
Tue 01:20:40 PM 21.7564 -74.7308 139° Southeast 505 581 39,000  Level Miami Center
Tue 01:21:40 PM 21.6569 -74.6297 137° Southeast 495 570 39,000 -50 Level Miami Center
Tue 01:22:40 PM 21.5508 -74.5286 138° Southeast 495 570 38,900  Descending Miami Center
Tue 01:23:40 PM 21.4472 -74.4303 139° Southeast 495 570 39,000 50 Climbing Miami Center
Tue 01:24:40 PM 21.3411 -74.3342 140° Southeast 495 570 39,000  Level Miami Center
Tue 01:25:40 PM 21.2394 -74.2381 139° Southeast 489 563 39,000  Level Miami Center
Tue 01:26:40 PM 21.1353 -74.1397 139° Southeast 494 568 39,000  Level Miami Center
Tue 01:27:40 PM 21.0314 -74.0419 139° Southeast 493 567 39,000  Level Miami Center
Tue 01:28:40 PM 20.9294 -73.9442 138° Southeast 493 567 39,000  Level Miami Center
Tue 01:29:40 PM 20.8253 -73.8486 139° Southeast 493 567 39,000  Level Miami Center
Tue 01:30:40 PM 20.7211 -73.7556 140° Southeast 493 567 39,000 -50 Level Miami Center
Tue 01:31:40 PM 20.6169 -73.6581 139° Southeast 493 567 38,900  Descending Miami Center
Tue 01:32:40 PM 20.5169 -73.5631 138° Southeast 488 562 39,000 50 Climbing Miami Center
Tue 01:33:40 PM 20.4147 -73.4681 139° Southeast 488 562 39,000  Level Miami Center
Tue 01:34:40 PM 20.3125 -73.3711 138° Southeast 488 562 39,000  Level Miami Center
Tue 01:35:40 PM 20.2058 -73.2744 140° Southeast 493 567 39,000 -50 Level Miami Center
Tue 01:36:40 PM 20.0956 -73.1911 145° Southeast 493 567 38,900 -100 Descending Miami Center
Tue 01:38:00 PM 19.9588 -73.0885 146° Southeast  Level FlightAware Approximate
Tue 01:45:00 PM 19.2318 -72.5652 146° Southeast  Level FlightAware Approximate
Tue 01:46:00 PM 19.1278 -72.4909 146° Southeast  Level FlightAware Approximate
Tue 01:47:00 PM 19.0238 -72.4166 146° Southeast  Level FlightAware Approximate
Tue 01:48:00 PM 18.9198 -72.3424 146° Southeast  Level FlightAware Approximate
Tue 01:49:00 PM 18.8157 -72.2683 146° Southeast  Level FlightAware Approximate
Tue 01:50:00 PM 18.7116 -72.1943 146° Southeast  Level FlightAware Approximate
Tue 01:51:00 PM 18.6075 -72.1204 146° Southeast  Level FlightAware Approximate
Tue 01:52:00 PM 18.5033 -72.0466 146° Southeast  Level FlightAware Approximate
Tue 01:53:00 PM 18.3991 -71.9728 146° Southeast  Level FlightAware Approximate
Tue 01:54:00 PM 18.2949 -71.8992 146° Southeast  Level FlightAware Approximate
Tue 01:55:00 PM 18.1907 -71.8256 146° Southeast  Level FlightAware Approximate
Tue 01:56:00 PM 18.0864 -71.7522 146° Southeast  Level FlightAware Approximate
Tue 01:57:00 PM 17.9818 -71.6792 146° Southeast  Level FlightAware Approximate
Tue 01:58:00 PM 17.8772 -71.6064 146° Southeast  Level FlightAware Approximate
Tue 01:59:00 PM 17.7726 -71.5337 146° Southeast  Level FlightAware Approximate
Tue 02:00:00 PM 17.6679 -71.4610 147° Southeast  Level FlightAware Approximate
Tue 02:01:00 PM 17.5632 -71.3884 147° Southeast  Level FlightAware Approximate
Tue 02:02:00 PM 17.4585 -71.3159 147° Southeast  Level FlightAware Approximate
Tue 02:03:00 PM 17.3537 -71.2436 147° Southeast  Level FlightAware Approximate
Tue 02:04:00 PM 17.2489 -71.1712 147° Southeast  Level FlightAware Approximate
Tue 02:05:00 PM 17.1441 -71.0990 147° Southeast  Level FlightAware Approximate
Tue 02:06:00 PM 17.0393 -71.0268 147° Southeast  Level FlightAware Approximate
Tue 02:07:00 PM 16.9344 -70.9548 147° Southeast  Level FlightAware Approximate
Tue 02:08:00 PM 16.8295 -70.8828 147° Southeast  Level FlightAware Approximate
Tue 02:09:00 PM 16.7246 -70.8108 147° Southeast  Level FlightAware Approximate
Tue 02:10:00 PM 16.6197 -70.7390 147° Southeast  Level FlightAware Approximate
Tue 02:11:00 PM 16.5147 -70.6672 147° Southeast  Level FlightAware Approximate
Tue 02:12:00 PM 16.4098 -70.5956 147° Southeast  Level FlightAware Approximate
Tue 02:13:00 PM 16.3048 -70.5239 147° Southeast  Level FlightAware Approximate
Tue 02:14:00 PM 16.1997 -70.4524 147° Southeast  Level FlightAware Approximate
Tue 02:15:00 PM 16.0947 -70.3810 147° Southeast  Level FlightAware Approximate
Tue 02:16:00 PM 15.9896 -70.3096 147° Southeast  Level FlightAware Approximate
Tue 02:17:00 PM 15.8847 -70.2381 147° Southeast  Level FlightAware Approximate
Tue 02:18:00 PM 15.7797 -70.1666 147° Southeast  Level FlightAware Approximate
Tue 02:19:00 PM 15.6747 -70.0952 147° Southeast  Level FlightAware Approximate
Tue 02:20:00 PM 15.5697 -70.0239 147° Southeast  Level FlightAware Approximate
Tue 02:21:00 PM 15.4647 -69.9527 147° Southeast  Level FlightAware Approximate
Tue 02:22:00 PM 15.3596 -69.8815 147° Southeast  Level FlightAware Approximate
Tue 02:23:00 PM 15.2545 -69.8104 147° Southeast  Level FlightAware Approximate
Tue 02:24:00 PM 15.1494 -69.7393 147° Southeast  Level FlightAware Approximate
Tue 02:25:00 PM 15.0443 -69.6684 147° Southeast  Level FlightAware Approximate
Tue 02:26:00 PM 14.9391 -69.5975 147° Southeast  Level FlightAware Approximate
Tue 02:27:00 PM 14.8339 -69.5267 147° Southeast  Level FlightAware Approximate
Tue 02:28:00 PM 14.7287 -69.4559 147° Southeast  Level FlightAware Approximate
Tue 02:29:00 PM 14.6235 -69.3852 147° Southeast  Level FlightAware Approximate
Tue 02:30:00 PM 14.5183 -69.3146 147° Southeast  Level FlightAware Approximate
Tue 02:31:00 PM 14.4130 -69.2441 147° Southeast  Level FlightAware Approximate
Tue 02:32:00 PM 14.3077 -69.1736 147° Southeast  Level FlightAware Approximate
Tue 02:33:00 PM 14.2024 -69.1032 147° Southeast  Level FlightAware Approximate
Tue 02:34:00 PM 14.0971 -69.0329 147° Southeast  Level FlightAware Approximate
Tue 02:35:00 PM 13.9917 -68.9626 147° Southeast  Level FlightAware Approximate
Tue 02:36:00 PM 13.8864 -68.8923 147° Southeast  Level FlightAware Approximate
Tue 02:37:00 PM 13.7810 -68.8222 147° Southeast  Level FlightAware Approximate
Tue 02:38:00 PM 13.6756 -68.7521 147° Southeast  Level FlightAware Approximate
Tue 02:39:00 PM 13.5702 -68.6821 147° Southeast  Level FlightAware Approximate
Tue 02:40:00 PM 13.4647 -68.6121 147° Southeast  Level FlightAware Approximate
Tue 02:41:00 PM 13.3593 -68.5422 147° Southeast  Level FlightAware Approximate
Tue 02:42:00 PM 13.2538 -68.4724 147° Southeast  Level FlightAware Approximate
Tue 02:43:00 PM 13.1483 -68.4026 147° Southeast  Level FlightAware Approximate
Tue 02:44:00 PM 13.0428 -68.3329 147° Southeast  Level FlightAware Approximate
Tue 02:45:00 PM 12.9372 -68.2632 147° Southeast  Level FlightAware Approximate
Tue 02:46:00 PM 12.8318 -68.1934 147° Southeast  Level FlightAware Approximate
Tue 02:47:00 PM 12.7266 -68.1232 147° Southeast  Level FlightAware Approximate
Tue 02:48:00 PM 12.6214 -68.0531 147° Southeast  Level FlightAware Approximate
Tue 02:49:00 PM 12.5173 -67.9814 145° Southeast  Level FlightAware Approximate
Tue 02:50:00 PM 12.4144 -67.9078 145° Southeast  Level FlightAware Approximate
Tue 02:51:00 PM 12.3093 -67.8380 154° Southeast  Level FlightAware Approximate
Tue 02:52:00 PM 12.1986 -67.7824 146° Southeast  Level FlightAware Approximate
Tue 02:53:00 PM 12.0947 -67.7104 146° Southeast  Level FlightAware Approximate
Tue 02:54:00 PM 11.9908 -67.6385 146° Southeast  Level FlightAware Approximate
Tue 02:55:00 PM 11.8858 -67.5683 147° Southeast  Level FlightAware Approximate
Tue 02:56:00 PM 11.7807 -67.4982 147° Southeast  Level FlightAware Approximate
Tue 02:57:00 PM 11.6753 -67.4287 147° Southeast  Level FlightAware Approximate
Tue 02:58:00 PM 11.5697 -67.3595 147° Southeast  Level FlightAware Approximate
Tue 02:59:00 PM 11.4640 -67.2905 147° Southeast  Level FlightAware Approximate
Tue 03:00:00 PM 11.3583 -67.2214 147° Southeast  Level FlightAware Approximate
Tue 03:01:00 PM 11.2521 -67.1534 148° Southeast  Level FlightAware Approximate
Tue 03:02:00 PM 11.1452 -67.0863 148° Southeast  Level FlightAware Approximate
Tue 03:03:00 PM 11.0388 -67.0186 148° Southeast  Level FlightAware Approximate
Tue 03:04:00 PM 10.9330 -66.9498 147° Southeast  Level FlightAware Approximate
Tue 03:05:00 PM 10.8175 -66.9198 191° South  Level FlightAware Approximate
Tue 03:06:00 PM 10.6944 -66.9445 191° South  Level FlightAware Approximate
Tue 03:07:00 PM 10.6000 -66.9667 194° South  Level FlightAware Approximate
Tue 03:08:00 PM 10.6031 -66.9906 194° South  Level Estimated
Tue 03:09:00 PM 10.6031 -66.9906 194° South  Level Estimated
Tue 03:10:00 PM 10.6031 -66.9906 194° South  Level Estimated
Tue 03:11:00 PM 10.6031 -66.9906 194° South  Level Estimated
Tue 03:12:00 PM 10.6031 -66.9906 194° South  Level Estimated

Login

Don't have an account? Register now (free) for customized features, flight alerts, and more!